createdAt,value
2023-02-22T00:01:08.235Z,9.10
2023-02-22T00:03:36.799Z,9.02
2023-02-22T00:06:07.345Z,9.02
2023-02-22T00:08:38.325Z,9.01
2023-02-22T00:11:10.647Z,8.96
2023-02-22T00:13:40.032Z,8.93
2023-02-22T00:16:08.779Z,8.90
2023-02-22T00:18:37.853Z,8.89
2023-02-22T00:21:10.626Z,8.87
2023-02-22T00:23:43.347Z,8.82
2023-02-22T00:26:13.246Z,8.81
2023-02-22T00:28:42.470Z,8.83
2023-02-22T00:31:10.586Z,8.81
2023-02-22T00:33:40.465Z,8.83
2023-02-22T00:36:10.981Z,8.85
2023-02-22T00:38:40.008Z,8.84
2023-02-22T00:41:08.608Z,8.83
2023-02-22T00:43:37.180Z,8.78
2023-02-22T00:46:05.777Z,8.77
2023-02-22T00:48:34.181Z,8.77
2023-02-22T00:51:02.285Z,8.75
2023-02-22T00:53:30.755Z,8.70
2023-02-22T00:55:59.236Z,8.67
2023-02-22T00:58:27.742Z,8.64
2023-02-22T01:00:56.301Z,8.61
2023-02-22T01:03:24.698Z,8.59
2023-02-22T01:05:53.225Z,8.61
2023-02-22T01:08:21.614Z,8.64
2023-02-22T01:10:52.599Z,8.62
2023-02-22T01:13:21.087Z,8.63
2023-02-22T01:15:49.974Z,8.67
2023-02-22T01:18:18.556Z,8.69
2023-02-22T01:20:48.059Z,8.68
2023-02-22T01:23:17.448Z,8.69
2023-02-22T01:25:45.939Z,8.70
2023-02-22T01:28:15.282Z,8.63
2023-02-22T01:30:43.829Z,8.60
2023-02-22T01:33:13.151Z,8.59
2023-02-22T01:35:41.902Z,8.61
2023-02-22T01:38:14.088Z,8.62
2023-02-22T01:40:45.442Z,8.63
2023-02-22T01:43:33.338Z,8.63
2023-02-22T01:46:08.469Z,8.58
2023-02-22T01:48:47.177Z,8.56
2023-02-22T01:51:25.383Z,8.58
2023-02-22T01:54:07.593Z,8.53
2023-02-22T01:56:41.418Z,8.47
2023-02-22T01:59:13.002Z,8.49
2023-02-22T02:01:44.739Z,8.47
2023-02-22T02:04:25.544Z,8.43
2023-02-22T02:06:55.952Z,8.39
2023-02-22T02:09:52.204Z,8.36
2023-02-22T02:12:23.508Z,8.28
2023-02-22T02:14:51.489Z,8.21
2023-02-22T02:17:24.268Z,8.20
2023-02-22T02:20:21.168Z,8.18
2023-02-22T02:23:10.068Z,8.17
2023-02-22T02:26:09.145Z,8.15
2023-02-22T02:29:01.730Z,8.08
2023-02-22T02:32:26.104Z,7.98
2023-02-22T02:35:14.342Z,7.88
2023-02-22T02:38:19.136Z,7.85
2023-02-22T02:41:06.776Z,7.88
2023-02-22T02:44:05.576Z,7.85
2023-02-22T02:46:59.356Z,7.81
2023-02-22T02:49:55.757Z,7.75
2023-02-22T02:52:28.642Z,7.71
2023-02-22T02:54:58.012Z,7.67
2023-02-22T02:57:26.547Z,7.67
2023-02-22T02:59:54.919Z,7.65
2023-02-22T03:03:17.515Z,7.61
2023-02-22T03:06:23.324Z,7.57
2023-02-22T03:09:21.595Z,7.60
2023-02-22T03:12:01.355Z,7.64
2023-02-22T03:14:55.812Z,7.69
2023-02-22T03:18:08.880Z,7.77
2023-02-22T03:21:00.217Z,7.86
2023-02-22T03:23:43.440Z,7.91
2023-02-22T03:26:24.043Z,7.97
2023-02-22T03:28:55.810Z,8.00
2023-02-22T03:31:37.249Z,8.03
2023-02-22T03:34:27.569Z,8.07
2023-02-22T03:37:01.121Z,8.12
2023-02-22T03:39:31.942Z,8.18
2023-02-22T03:42:07.985Z,8.25
2023-02-22T03:44:40.239Z,8.31
2023-02-22T03:47:14.634Z,8.36
2023-02-22T03:49:56.309Z,8.37
2023-02-22T03:52:24.964Z,8.36
2023-02-22T03:54:54.585Z,8.40
2023-02-22T03:57:29.816Z,8.47
2023-02-22T03:59:57.851Z,8.50
2023-02-22T04:02:26.333Z,8.55
2023-02-22T04:04:54.797Z,8.59
2023-02-22T04:07:23.210Z,8.61
2023-02-22T04:09:51.376Z,8.63
2023-02-22T04:12:19.824Z,8.64
2023-02-22T04:14:48.206Z,8.65
2023-02-22T04:17:16.229Z,8.69
2023-02-22T04:19:45.720Z,8.72
2023-02-22T04:22:13.773Z,8.75
2023-02-22T04:24:42.144Z,8.75
2023-02-22T04:27:10.544Z,8.78
2023-02-22T04:29:38.604Z,8.78
2023-02-22T04:32:07.053Z,8.78
2023-02-22T04:34:35.240Z,8.79
2023-02-22T04:37:03.683Z,8.78
2023-02-22T04:39:32.112Z,8.81
2023-02-22T04:42:00.165Z,8.82
2023-02-22T04:44:28.227Z,8.85
2023-02-22T04:46:56.682Z,8.88
2023-02-22T04:49:25.208Z,8.88
2023-02-22T04:51:53.767Z,8.90
2023-02-22T04:54:21.802Z,8.92
2023-02-22T04:56:49.923Z,8.94
2023-02-22T04:59:19.720Z,8.93
2023-02-22T05:01:47.953Z,8.92
2023-02-22T05:04:16.051Z,8.89
2023-02-22T05:06:44.043Z,8.91
2023-02-22T05:09:12.097Z,8.93
2023-02-22T05:11:40.493Z,8.93
2023-02-22T05:14:08.922Z,8.92
2023-02-22T05:16:37.159Z,8.93
2023-02-22T05:19:05.745Z,8.93
2023-02-22T05:21:33.795Z,8.93
2023-02-22T05:24:01.839Z,8.97
2023-02-22T05:26:30.224Z,8.97
2023-02-22T05:28:58.288Z,8.95
2023-02-22T05:31:26.802Z,8.97
2023-02-22T05:33:54.847Z,8.99
2023-02-22T05:36:23.308Z,9.01
2023-02-22T05:38:51.717Z,9.02
2023-02-22T05:41:20.163Z,9.02
2023-02-22T05:43:48.858Z,9.01
2023-02-22T05:46:17.300Z,9.02
2023-02-22T05:48:45.332Z,9.01
2023-02-22T05:51:13.566Z,9.04
2023-02-22T05:53:42.550Z,9.00
2023-02-22T05:56:10.933Z,9.03
2023-02-22T05:58:38.995Z,9.02
2023-02-22T06:01:07.625Z,9.02
2023-02-22T06:03:35.622Z,9.02
2023-02-22T06:06:05.660Z,9.05
2023-02-22T06:08:33.620Z,9.05
2023-02-22T06:11:02.147Z,9.06
2023-02-22T06:13:30.096Z,9.06
2023-02-22T06:16:00.744Z,9.05
2023-02-22T06:18:30.999Z,8.97
2023-02-22T06:21:00.247Z,9.03
2023-02-22T06:23:28.697Z,9.04
2023-02-22T06:25:56.804Z,9.03
2023-02-22T06:28:26.364Z,9.03
2023-02-22T06:30:54.367Z,9.02
2023-02-22T06:33:22.769Z,9.05
2023-02-22T06:35:50.907Z,9.06
2023-02-22T06:38:27.675Z,9.05
2023-02-22T06:40:56.439Z,9.08
2023-02-22T06:43:25.999Z,9.10
2023-02-22T06:45:54.602Z,9.13
2023-02-22T06:48:22.777Z,9.19
2023-02-22T06:50:50.913Z,9.16
2023-02-22T06:53:18.964Z,9.18
2023-02-22T06:55:46.914Z,9.23
2023-02-22T06:58:15.981Z,9.20
2023-02-22T07:00:44.072Z,9.21
2023-02-22T07:03:14.309Z,9.32
2023-02-22T07:05:42.829Z,9.26
2023-02-22T07:08:11.587Z,9.23
2023-02-22T07:10:41.154Z,9.25
2023-02-22T07:13:10.016Z,9.25
2023-02-22T07:15:38.510Z,9.25
2023-02-22T07:18:07.466Z,9.22
2023-02-22T07:20:36.283Z,9.24
2023-02-22T07:23:04.438Z,9.26
2023-02-22T07:25:32.941Z,9.26
2023-02-22T07:28:01.487Z,9.30
2023-02-22T07:30:34.064Z,9.30
2023-02-22T07:33:05.857Z,9.33
2023-02-22T07:35:49.513Z,9.35
2023-02-22T07:38:20.230Z,9.38
2023-02-22T07:40:48.591Z,9.40
2023-02-22T07:43:23.601Z,9.43
2023-02-22T07:45:54.845Z,9.44
2023-02-22T07:48:26.886Z,9.49
2023-02-22T07:50:55.373Z,9.48
2023-02-22T07:53:30.785Z,9.48
2023-02-22T07:56:00.489Z,9.54
2023-02-22T07:58:31.855Z,9.53
2023-02-22T08:01:02.137Z,9.54
2023-02-22T08:03:36.408Z,9.52
2023-02-22T08:06:07.101Z,9.56
2023-02-22T08:08:35.732Z,9.58
2023-02-22T08:11:04.388Z,9.60
2023-02-22T08:13:32.860Z,9.64
2023-02-22T08:16:01.410Z,9.62
2023-02-22T08:18:29.816Z,9.64
2023-02-22T08:20:58.189Z,9.66
2023-02-22T08:23:27.451Z,9.70
2023-02-22T08:25:56.581Z,9.70
2023-02-22T08:28:26.444Z,9.77
2023-02-22T08:30:55.107Z,9.82
2023-02-22T08:33:23.703Z,9.84
2023-02-22T08:35:52.276Z,9.88
2023-02-22T08:38:26.101Z,9.92
2023-02-22T08:40:54.869Z,9.96
2023-02-22T08:43:23.804Z,9.99
2023-02-22T08:45:52.974Z,10.07
2023-02-22T08:48:22.030Z,10.13
2023-02-22T08:50:50.528Z,10.18
2023-02-22T08:53:19.043Z,10.25
2023-02-22T08:55:47.783Z,10.33
2023-02-22T08:58:16.266Z,10.38
2023-02-22T09:00:45.694Z,10.41
2023-02-22T09:03:16.410Z,10.44
2023-02-22T09:05:45.701Z,10.49
2023-02-22T09:08:14.450Z,10.49
2023-02-22T09:10:42.746Z,10.46
2023-02-22T09:13:11.132Z,10.54
2023-02-22T09:15:40.794Z,10.42
2023-02-22T09:18:11.581Z,10.48
2023-02-22T09:20:40.221Z,10.55
2023-02-22T09:23:11.219Z,10.59
2023-02-22T09:25:40.935Z,10.63
2023-02-22T09:28:09.303Z,10.69
2023-02-22T09:30:38.262Z,10.72
2023-02-22T09:33:18.489Z,10.73
2023-02-22T09:35:49.837Z,10.71
2023-02-22T09:38:24.773Z,10.77
2023-02-22T09:41:09.044Z,10.80
2023-02-22T09:44:08.794Z,10.88
2023-02-22T09:46:42.107Z,10.89
2023-02-22T09:49:38.180Z,10.93
2023-02-22T09:52:18.762Z,11.03
2023-02-22T09:54:57.772Z,11.09
2023-02-22T09:57:40.678Z,11.14
2023-02-22T10:00:17.531Z,11.14
2023-02-22T10:03:00.250Z,11.22
2023-02-22T10:05:31.075Z,11.22
2023-02-22T10:08:06.920Z,11.20
2023-02-22T10:10:39.973Z,11.34
2023-02-22T10:13:28.988Z,11.34
2023-02-22T10:16:44.546Z,11.43
2023-02-22T10:19:43.603Z,11.35
2023-02-22T10:22:40.197Z,11.41
2023-02-22T10:25:20.086Z,11.54
2023-02-22T10:28:21.901Z,11.63
2023-02-22T10:30:59.559Z,11.66
2023-02-22T10:33:42.550Z,11.68
2023-02-22T10:36:22.308Z,11.70
2023-02-22T10:39:09.188Z,11.75
2023-02-22T10:41:46.103Z,11.83
2023-02-22T10:44:14.442Z,11.80
2023-02-22T10:46:44.503Z,11.80
2023-02-22T10:49:19.003Z,11.83
2023-02-22T10:51:49.512Z,11.91
2023-02-22T10:54:26.683Z,11.95
2023-02-22T10:56:56.678Z,12.06
2023-02-22T10:59:38.281Z,12.13
2023-02-22T11:02:24.521Z,12.17
2023-02-22T11:04:59.555Z,12.27
2023-02-22T11:07:33.263Z,12.30
2023-02-22T11:10:10.240Z,12.28
2023-02-22T11:12:44.662Z,12.37
2023-02-22T11:15:32.927Z,12.47
2023-02-22T11:18:01.991Z,12.44
2023-02-22T11:20:38.420Z,12.45
2023-02-22T11:23:08.257Z,12.45
2023-02-22T11:25:43.124Z,12.40
2023-02-22T11:28:31.401Z,12.43
2023-02-22T11:31:23.564Z,12.45
2023-02-22T11:33:58.101Z,12.50
2023-02-22T11:36:46.609Z,12.49
2023-02-22T11:39:28.107Z,12.52
2023-02-22T11:41:59.705Z,12.55
2023-02-22T11:44:31.875Z,12.58
2023-02-22T11:47:07.037Z,12.49
2023-02-22T11:49:49.209Z,12.60
2023-02-22T11:52:39.485Z,12.55
2023-02-22T11:56:00.271Z,12.65
2023-02-22T11:59:08.865Z,12.72
2023-02-22T12:01:54.964Z,12.75
2023-02-22T12:04:57.520Z,12.73
2023-02-22T12:07:31.741Z,12.79
2023-02-22T12:10:14.760Z,12.76
2023-02-22T12:12:43.185Z,12.76
2023-02-22T12:15:31.099Z,12.73
2023-02-22T12:18:46.023Z,12.72
2023-02-22T12:21:19.311Z,12.58
2023-02-22T12:24:02.782Z,12.61
2023-02-22T12:26:42.449Z,12.67
2023-02-22T12:29:58.098Z,12.64
2023-02-22T12:32:42.956Z,12.66
2023-02-22T12:35:29.582Z,12.64
2023-02-22T12:38:15.348Z,12.65
2023-02-22T12:40:53.892Z,12.72
2023-02-22T12:43:39.016Z,12.75
2023-02-22T12:46:18.955Z,12.80
2023-02-22T12:49:13.934Z,12.65
2023-02-22T12:52:21.332Z,12.69
2023-02-22T12:55:07.120Z,12.54
2023-02-22T12:57:53.021Z,12.50
2023-02-22T13:00:56.841Z,12.42
2023-02-22T13:03:40.947Z,12.38
2023-02-22T13:06:27.700Z,12.43
2023-02-22T13:09:44.154Z,12.42
2023-02-22T13:12:14.692Z,12.44
2023-02-22T13:15:10.883Z,12.40
2023-02-22T13:18:12.813Z,12.46
2023-02-22T13:20:52.086Z,12.43
2023-02-22T13:24:04.846Z,12.43
2023-02-22T13:27:03.034Z,12.44
2023-02-22T13:29:43.941Z,12.46
2023-02-22T13:32:39.983Z,12.53
2023-02-22T13:35:10.785Z,12.51
2023-02-22T13:38:03.405Z,12.58
2023-02-22T13:40:57.877Z,12.63
2023-02-22T13:43:32.305Z,12.65
2023-02-22T13:46:37.202Z,12.56
2023-02-22T13:49:39.831Z,12.53
2023-02-22T13:52:17.199Z,12.56
2023-02-22T13:54:46.771Z,12.59
2023-02-22T13:57:48.193Z,12.67
2023-02-22T14:00:16.620Z,12.71
2023-02-22T14:03:14.391Z,12.65
2023-02-22T14:05:42.525Z,12.63
2023-02-22T14:08:19.747Z,12.65
2023-02-22T14:10:51.828Z,12.64
2023-02-22T14:13:29.172Z,12.65
2023-02-22T14:16:00.824Z,12.56
2023-02-22T14:18:32.701Z,12.61
2023-02-22T14:21:20.775Z,12.59
2023-02-22T14:24:13.157Z,12.55
2023-02-22T14:26:42.347Z,12.53
2023-02-22T14:29:10.367Z,12.58
2023-02-22T14:31:44.574Z,12.52
2023-02-22T14:34:21.453Z,12.59
2023-02-22T14:37:13.519Z,12.53
2023-02-22T14:39:43.737Z,12.53
2023-02-22T14:42:38.481Z,12.56
2023-02-22T14:45:09.707Z,12.52
2023-02-22T14:47:54.427Z,12.54
2023-02-22T14:50:28.879Z,12.55
2023-02-22T14:53:23.768Z,12.49
2023-02-22T14:56:04.350Z,12.49
2023-02-22T14:58:37.663Z,12.53
2023-02-22T15:02:05.692Z,12.50
2023-02-22T15:04:27.726Z,12.48
2023-02-22T15:06:58.488Z,12.52
2023-02-22T15:09:37.630Z,12.52
2023-02-22T15:12:05.814Z,12.49
2023-02-22T15:14:40.753Z,12.51
2023-02-22T15:17:22.939Z,12.41
2023-02-22T15:19:52.251Z,12.39
2023-02-22T15:22:37.245Z,12.35
2023-02-22T15:25:08.600Z,12.40
2023-02-22T15:27:38.079Z,12.30
2023-02-22T15:30:26.490Z,12.31
2023-02-22T15:33:04.477Z,12.35
2023-02-22T15:35:34.094Z,12.29
2023-02-22T15:38:14.622Z,12.34
2023-02-22T15:40:43.227Z,12.30
2023-02-22T15:43:24.284Z,12.24
2023-02-22T15:45:53.460Z,12.24
2023-02-22T15:48:21.611Z,12.20
2023-02-22T15:51:15.303Z,12.16
2023-02-22T15:53:48.611Z,12.20
2023-02-22T15:56:29.959Z,12.17
2023-02-22T15:59:13.199Z,12.10
2023-02-22T16:01:48.371Z,12.03
2023-02-22T16:04:26.867Z,12.03
2023-02-22T16:07:16.913Z,12.00
2023-02-22T16:09:51.374Z,11.99
2023-02-22T16:12:22.407Z,11.94
2023-02-22T16:14:52.546Z,11.94
2023-02-22T16:17:30.856Z,11.95
2023-02-22T16:20:08.425Z,11.84
2023-02-22T16:22:39.499Z,11.74
2023-02-22T16:25:20.208Z,11.73
2023-02-22T16:28:01.620Z,11.73
2023-02-22T16:30:39.593Z,11.65
2023-02-22T16:33:13.767Z,11.53
2023-02-22T16:35:51.748Z,11.46
2023-02-22T16:38:21.293Z,11.44
2023-02-22T16:40:56.625Z,11.47
2023-02-22T16:43:32.710Z,11.43
2023-02-22T16:46:02.986Z,11.31
2023-02-22T16:48:33.686Z,11.26
2023-02-22T16:51:08.932Z,11.31
2023-02-22T16:53:38.858Z,11.26
2023-02-22T16:56:11.754Z,11.25
2023-02-22T16:58:41.862Z,11.18
2023-02-22T17:01:12.698Z,11.23
2023-02-22T17:03:41.280Z,11.15
2023-02-22T17:06:11.109Z,11.16
2023-02-22T17:08:41.837Z,11.01
2023-02-22T17:11:14.040Z,10.95
2023-02-22T17:13:42.061Z,10.96
2023-02-22T17:16:15.972Z,10.99
2023-02-22T17:18:45.905Z,10.92
2023-02-22T17:21:16.597Z,10.88
2023-02-22T17:23:46.260Z,10.81
2023-02-22T17:26:17.246Z,10.92
2023-02-22T17:28:46.133Z,10.85
2023-02-22T17:31:24.094Z,10.85
2023-02-22T17:33:52.515Z,10.77
2023-02-22T17:36:21.105Z,10.79
2023-02-22T17:38:50.007Z,10.82
2023-02-22T17:41:26.375Z,10.81
2023-02-22T17:43:58.687Z,10.73
2023-02-22T17:46:47.825Z,10.74
2023-02-22T17:49:42.182Z,10.69
2023-02-22T17:52:17.803Z,10.69
2023-02-22T17:57:59.384Z,10.59
2023-02-22T18:00:38.956Z,10.52
2023-02-22T18:03:21.207Z,10.52
2023-02-22T18:06:10.072Z,10.57
2023-02-22T18:08:39.240Z,10.48
2023-02-22T18:11:07.826Z,10.50
2023-02-22T18:13:36.460Z,10.45
2023-02-22T18:16:05.821Z,10.40
2023-02-22T18:18:34.823Z,10.46
2023-02-22T18:21:04.152Z,10.39
2023-02-22T18:23:34.235Z,10.46
2023-02-22T18:26:11.099Z,10.41
2023-02-22T18:28:40.588Z,10.39
2023-02-22T18:31:14.458Z,10.29
2023-02-22T18:33:49.450Z,10.23
2023-02-22T18:36:23.010Z,10.20
2023-02-22T18:38:54.185Z,10.20
2023-02-22T18:41:26.557Z,10.15
2023-02-22T18:43:58.977Z,10.18
2023-02-22T18:46:27.998Z,10.10
2023-02-22T18:48:57.816Z,10.15
2023-02-22T18:51:27.109Z,10.13
2023-02-22T18:54:00.427Z,10.12
2023-02-22T18:56:30.883Z,10.03
2023-02-22T18:59:02.441Z,9.99
2023-02-22T19:01:31.609Z,10.03
2023-02-22T19:04:01.871Z,10.01
2023-02-22T19:06:30.376Z,10.04
2023-02-22T19:09:01.390Z,10.01
2023-02-22T19:11:30.090Z,9.98
2023-02-22T19:13:59.604Z,9.97
2023-02-22T19:16:29.020Z,9.98
2023-02-22T19:18:59.115Z,9.97
2023-02-22T19:21:29.858Z,9.88
2023-02-22T19:24:00.054Z,9.88
2023-02-22T19:26:38.449Z,9.79
2023-02-22T19:29:08.439Z,9.74
2023-02-22T19:31:36.992Z,9.73
2023-02-22T19:34:11.974Z,9.78
2023-02-22T19:36:46.895Z,9.73
2023-02-22T19:39:18.885Z,9.68
2023-02-22T19:41:48.038Z,9.68
2023-02-22T19:44:16.487Z,9.66
2023-02-22T19:46:46.737Z,9.72
2023-02-22T19:49:16.179Z,9.67
2023-02-22T19:51:44.226Z,9.67
2023-02-22T19:54:17.416Z,9.73
2023-02-22T19:56:50.813Z,9.58
2023-02-22T19:59:22.896Z,9.51
2023-02-22T20:01:54.973Z,9.49
2023-02-22T20:04:23.617Z,9.45
2023-02-22T20:06:55.141Z,9.38
2023-02-22T20:09:29.839Z,9.37
2023-02-22T20:11:59.296Z,9.30
2023-02-22T20:14:30.586Z,9.30
2023-02-22T20:17:00.564Z,9.32
2023-02-22T20:19:29.859Z,9.31
2023-02-22T20:22:00.316Z,9.30
2023-02-22T20:24:28.814Z,9.26
2023-02-22T20:26:58.324Z,9.25
2023-02-22T20:29:30.481Z,9.22
2023-02-22T20:32:05.582Z,9.17
2023-02-22T20:34:36.365Z,9.15
2023-02-22T20:37:05.489Z,9.13
2023-02-22T20:39:34.139Z,9.08
2023-02-22T20:42:04.691Z,9.03
2023-02-22T20:44:33.170Z,9.07
2023-02-22T20:47:03.449Z,9.09
2023-02-22T20:49:31.841Z,9.03
2023-02-22T20:52:00.519Z,9.04
2023-02-22T20:54:28.957Z,9.03
2023-02-22T20:56:57.489Z,8.99
2023-02-22T20:59:29.050Z,8.96
2023-02-22T21:01:57.293Z,8.95
2023-02-22T21:04:25.638Z,8.97
2023-02-22T21:06:54.058Z,8.94
2023-02-22T21:09:22.765Z,8.96
2023-02-22T21:11:51.336Z,8.94
2023-02-22T21:14:20.262Z,8.91
2023-02-22T21:16:51.870Z,8.89
2023-02-22T21:19:25.492Z,8.87
2023-02-22T21:21:56.504Z,8.88
2023-02-22T21:24:27.477Z,8.90
2023-02-22T21:26:58.585Z,8.84
2023-02-22T21:29:27.090Z,8.83
2023-02-22T21:31:55.835Z,8.86
2023-02-22T21:34:25.726Z,8.82
2023-02-22T21:36:54.565Z,8.80
2023-02-22T21:39:28.349Z,8.80
2023-02-22T21:42:00.640Z,8.78
2023-02-22T21:44:29.242Z,8.76
2023-02-22T21:46:57.746Z,8.78
2023-02-22T21:49:26.003Z,8.69
2023-02-22T21:51:54.183Z,8.67
2023-02-22T21:54:23.010Z,8.65
2023-02-22T21:56:51.624Z,8.63
2023-02-22T21:59:23.704Z,8.62
2023-02-22T22:01:56.629Z,8.59
2023-02-22T22:04:31.292Z,8.58
2023-02-22T22:07:01.779Z,8.54
2023-02-22T22:09:37.145Z,8.56
2023-02-22T22:12:06.076Z,8.54
2023-02-22T22:14:36.193Z,8.54
2023-02-22T22:17:07.974Z,8.52
2023-02-22T22:19:40.431Z,8.50
2023-02-22T22:22:09.460Z,8.47
2023-02-22T22:24:41.351Z,8.41
2023-02-22T22:27:12.276Z,8.39
2023-02-22T22:29:40.497Z,8.38
2023-02-22T22:32:10.590Z,8.39
2023-02-22T22:34:39.165Z,8.38
2023-02-22T22:37:07.671Z,8.44
2023-02-22T22:39:35.689Z,8.46
2023-02-22T22:42:03.814Z,8.47
2023-02-22T22:44:42.043Z,8.42
2023-02-22T22:47:12.460Z,8.38
2023-02-22T22:49:42.492Z,8.37
2023-02-22T22:52:14.150Z,8.33
2023-02-22T22:54:44.424Z,8.35
2023-02-22T22:57:13.456Z,8.38
2023-02-22T22:59:42.132Z,8.34
2023-02-22T23:02:11.610Z,8.33
2023-02-22T23:04:39.840Z,8.33
2023-02-22T23:07:08.498Z,8.30
2023-02-22T23:09:38.749Z,8.32
2023-02-22T23:12:09.619Z,8.34
2023-02-22T23:14:44.094Z,8.36
2023-02-22T23:17:26.815Z,8.37
2023-02-22T23:19:56.120Z,8.39
2023-02-22T23:22:24.545Z,8.41
2023-02-22T23:24:54.507Z,8.41
2023-02-22T23:27:23.717Z,8.42
2023-02-22T23:29:52.499Z,8.45
2023-02-22T23:32:21.125Z,8.47
2023-02-22T23:34:49.893Z,8.51
2023-02-22T23:37:20.877Z,8.50
2023-02-22T23:39:50.883Z,8.52
2023-02-22T23:42:19.146Z,8.55
2023-02-22T23:44:47.175Z,8.57
2023-02-22T23:47:16.039Z,8.54
2023-02-22T23:49:49.277Z,8.55
2023-02-22T23:52:24.240Z,8.55
2023-02-22T23:54:53.883Z,8.55
2023-02-22T23:57:22.050Z,8.60
2023-02-22T23:59:51.349Z,8.64
